Time;durP1;ratioP1;P1;durP2;ratioP2;P2;SDS_P1;SDS_P2;PMS_P1;PMS_P2;Temp;Humidity;BMP_temperature;BMP_pressure;BME280_temperature;BME280_humidity;BME280_pressure;Samples;Min_cycle;Max_cycle;Signal;HPM_P1;HPM_P2
2021/09/15 00:00:52;;;;;;;30.75;27.75;;;17.90;99.90;;;;;;5056663;28;20048;-76
2021/09/15 00:03:18;;;;;;;31.35;28.23;;;17.90;99.90;;;;;;5043640;28;20492;-76
2021/09/15 00:05:44;;;;;;;34.10;30.48;;;17.90;99.90;;;;;;5044250;28;21545;-76
2021/09/15 00:08:11;;;;;;;29.88;26.95;;;17.80;99.90;;;;;;5050019;28;20040;-76
2021/09/15 00:10:37;;;;;;;32.30;29.33;;;17.80;99.90;;;;;;5045063;28;20387;-76
2021/09/15 00:13:03;;;;;;;34.05;30.70;;;17.80;99.90;;;;;;5077033;28;20107;-76
2021/09/15 00:15:28;;;;;;;33.17;29.90;;;17.80;99.90;;;;;;5065952;28;20040;-76
2021/09/15 00:17:54;;;;;;;30.80;27.90;;;17.70;99.90;;;;;;5036703;28;20395;-76
2021/09/15 00:20:20;;;;;;;33.28;29.88;;;17.70;99.90;;;;;;5041599;28;20059;-76
2021/09/15 00:22:46;;;;;;;26.80;24.30;;;17.70;99.90;;;;;;5058495;28;20169;-76
2021/09/15 00:25:12;;;;;;;31.10;27.88;;;17.70;99.90;;;;;;5064395;28;20043;-76
2021/09/15 00:27:37;;;;;;;30.05;27.23;;;17.70;99.90;;;;;;5071200;28;20052;-75
2021/09/15 00:30:04;;;;;;;36.10;32.55;;;17.70;99.90;;;;;;5056218;28;20044;-75
2021/09/15 00:32:30;;;;;;;30.73;27.88;;;17.70;99.90;;;;;;5071456;28;20059;-75
2021/09/15 00:34:55;;;;;;;32.17;29.27;;;17.70;99.90;;;;;;5061129;28;20044;-75
2021/09/15 00:37:21;;;;;;;33.97;30.75;;;17.70;99.90;;;;;;5078913;28;20071;-75
2021/09/15 00:39:47;;;;;;;31.17;28.25;;;17.70;99.90;;;;;;5037946;28;20041;-75
2021/09/15 00:42:13;;;;;;;33.88;30.67;;;17.70;99.90;;;;;;5069324;28;20029;-75
2021/09/15 00:44:39;;;;;;;32.78;29.70;;;17.70;99.90;;;;;;5058536;28;20049;-76
2021/09/15 00:47:04;;;;;;;31.58;28.55;;;17.60;99.90;;;;;;5056004;28;20557;-75
2021/09/15 00:49:30;;;;;;;34.60;31.25;;;17.70;99.90;;;;;;5069265;28;20032;-75
2021/09/15 00:51:56;;;;;;;33.17;30.08;;;17.60;99.90;;;;;;5073153;28;20452;-75
2021/09/15 00:54:22;;;;;;;32.95;29.40;;;17.60;99.90;;;;;;5069458;28;20033;-75
2021/09/15 00:56:48;;;;;;;39.22;35.38;;;17.60;99.90;;;;;;5052268;28;20079;-75
2021/09/15 00:59:14;;;;;;;34.55;31.17;;;17.60;99.90;;;;;;5074319;28;20126;-75
2021/09/15 01:01:40;;;;;;;39.20;35.38;;;17.60;99.90;;;;;;5086219;28;20032;-75
2021/09/15 01:04:08;;;;;;;34.67;31.27;;;17.60;99.90;;;;;;5083198;28;20032;-75
2021/09/15 01:06:35;;;;;;;44.40;40.10;;;17.60;99.90;;;;;;5063371;28;20402;-75
2021/09/15 01:09:03;;;;;;;42.30;38.03;;;17.60;99.90;;;;;;5049067;28;20047;-75
2021/09/15 01:11:32;;;;;;;40.40;36.22;;;17.60;99.90;;;;;;5074510;28;20100;-75
2021/09/15 01:13:58;;;;;;;42.90;38.38;;;17.60;99.90;;;;;;5069195;28;20121;-75
2021/09/15 01:16:24;;;;;;;33.78;30.50;;;17.60;99.90;;;;;;5051058;28;20046;-75
2021/09/15 01:18:50;;;;;;;41.95;37.78;;;17.60;99.90;;;;;;5051341;28;20114;-75
2021/09/15 01:21:16;;;;;;;44.38;39.95;;;17.60;99.90;;;;;;5046452;28;20044;-75
2021/09/15 01:23:41;;;;;;;45.42;40.88;;;17.60;99.90;;;;;;5056531;28;20506;-75
2021/09/15 01:26:07;;;;;;;43.25;38.85;;;17.60;99.90;;;;;;5060556;28;20499;-75
2021/09/15 01:28:36;;;;;;;40.55;36.42;;;17.60;99.90;;;;;;5072475;28;20043;-75
2021/09/15 01:31:02;;;;;;;43.92;39.30;;;17.60;99.90;;;;;;5078836;28;20056;-75
2021/09/15 01:33:27;;;;;;;43.55;39.08;;;17.60;99.90;;;;;;5052709;28;20402;-75
2021/09/15 01:35:53;;;;;;;48.03;43.03;;;17.60;99.90;;;;;;5067987;28;20051;-75
2021/09/15 01:38:19;;;;;;;50.55;45.00;;;17.50;99.90;;;;;;5050210;28;20533;-75
2021/09/15 01:40:45;;;;;;;47.63;42.75;;;17.50;99.90;;;;;;5080457;28;20057;-75
2021/09/15 01:43:16;;;;;;;51.78;46.47;;;17.50;99.90;;;;;;5075269;28;20471;-75
2021/09/15 01:45:42;;;;;;;50.05;44.88;;;17.50;99.90;;;;;;5072515;28;20093;-75
2021/09/15 01:48:08;;;;;;;42.00;37.88;;;17.50;99.90;;;;;;5052537;28;20043;-75
2021/09/15 01:50:37;;;;;;;49.60;44.40;;;17.50;99.90;;;;;;5068677;28;20531;-75
2021/09/15 01:53:02;;;;;;;49.63;44.22;;;17.50;99.90;;;;;;5057131;28;20043;-75
2021/09/15 01:55:29;;;;;;;53.22;47.38;;;17.50;99.90;;;;;;5070015;28;20544;-75
2021/09/15 01:57:55;;;;;;;51.90;46.30;;;17.60;99.90;;;;;;5068387;28;20075;-75
2021/09/15 02:00:21;;;;;;;47.92;42.50;;;17.60;99.90;;;;;;5050829;28;20091;-75
2021/09/15 02:02:51;;;;;;;46.10;41.35;;;17.60;99.90;;;;;;5055925;28;20470;-75
2021/09/15 02:05:17;;;;;;;49.80;44.25;;;17.60;99.90;;;;;;5077751;28;20529;-75
2021/09/15 02:07:43;;;;;;;47.75;42.60;;;17.60;99.90;;;;;;5072869;28;20066;-75
2021/09/15 02:10:10;;;;;;;47.08;42.13;;;17.60;99.90;;;;;;5062028;28;20113;-75
2021/09/15 02:12:35;;;;;;;53.80;48.08;;;17.60;99.90;;;;;;5055895;28;20040;-75
2021/09/15 02:15:01;;;;;;;53.53;47.38;;;17.60;99.90;;;;;;5057027;28;20439;-75
2021/09/15 02:17:29;;;;;;;51.20;45.90;;;17.60;99.90;;;;;;5084183;28;20054;-75
2021/09/15 02:19:55;;;;;;;48.03;42.83;;;17.60;99.90;;;;;;5055459;28;20044;-75
2021/09/15 02:22:20;;;;;;;46.88;41.70;;;17.60;99.90;;;;;;5055488;28;20043;-75
2021/09/15 02:24:46;;;;;;;51.22;45.65;;;17.60;99.90;;;;;;5042332;28;20445;-75
2021/09/15 02:27:12;;;;;;;50.22;43.78;;;17.70;99.90;;;;;;5086128;28;20035;-75
2021/09/15 02:29:38;;;;;;;58.83;51.33;;;17.70;99.90;;;;;;5058106;28;20102;-75
2021/09/15 02:32:08;;;;;;;54.80;48.92;;;17.70;99.90;;;;;;5035445;28;20181;-75
2021/09/15 02:34:36;;;;;;;50.63;45.60;;;17.70;99.90;;;;;;5073106;28;20121;-75
2021/09/15 02:37:02;;;;;;;54.63;48.70;;;17.70;99.90;;;;;;5077232;28;20053;-75
2021/09/15 02:39:30;;;;;;;58.50;51.55;;;17.80;99.90;;;;;;5073886;28;20044;-75
2021/09/15 02:41:56;;;;;;;63.45;54.45;;;17.80;99.90;;;;;;5061893;28;20051;-75
2021/09/15 02:44:22;;;;;;;59.92;53.42;;;17.80;99.90;;;;;;5072290;28;20057;-75
2021/09/15 02:46:48;;;;;;;64.40;54.90;;;17.80;99.90;;;;;;5064741;28;20566;-75
2021/09/15 02:49:13;;;;;;;66.63;54.92;;;17.80;99.90;;;;;;5081399;28;20040;-75
2021/09/15 02:51:39;;;;;;;56.15;50.13;;;17.80;99.90;;;;;;5048961;28;20044;-74
2021/09/15 02:54:05;;;;;;;62.53;53.72;;;17.80;99.90;;;;;;5048982;28;20097;-75
2021/09/15 02:56:38;;;;;;;67.15;55.72;;;17.80;99.90;;;;;;5063345;28;20032;-75
2021/09/15 02:59:04;;;;;;;62.90;52.72;;;17.80;99.90;;;;;;5075196;27;20044;-75
2021/09/15 03:01:31;;;;;;;59.47;51.83;;;17.80;99.90;;;;;;5084508;28;20047;-75
2021/09/15 03:03:56;;;;;;;60.00;53.08;;;17.80;99.90;;;;;;5064858;28;20486;-75
2021/09/15 03:06:25;;;;;;;62.78;51.63;;;17.80;99.90;;;;;;5086008;27;20039;-75
2021/09/15 03:08:51;;;;;;;53.63;46.00;;;17.80;99.90;;;;;;5062416;28;20047;-75
2021/09/15 03:11:17;;;;;;;64.10;53.28;;;17.70;99.90;;;;;;5057997;27;20073;-75
2021/09/15 03:13:51;;;;;;;59.33;52.55;;;17.70;99.90;;;;;;5076682;27;20039;-75
2021/09/15 03:16:21;;;;;;;56.42;47.28;;;17.70;99.90;;;;;;5070461;27;20043;-75
2021/09/15 03:18:46;;;;;;;61.60;51.53;;;17.70;99.90;;;;;;5067383;28;20542;-75
2021/09/15 03:21:12;;;;;;;63.83;53.05;;;17.70;99.90;;;;;;5082013;28;20122;-75
2021/09/15 03:23:38;;;;;;;61.13;52.55;;;17.60;99.90;;;;;;5055585;28;20067;-74
2021/09/15 03:26:04;;;;;;;55.38;48.72;;;17.60;99.90;;;;;;5080995;28;20043;-74
2021/09/15 03:28:30;;;;;;;54.50;45.85;;;17.60;99.90;;;;;;5073747;28;20115;-74
2021/09/15 03:30:56;;;;;;;71.18;55.35;;;17.60;99.90;;;;;;5059554;28;20046;-74
2021/09/15 03:33:21;;;;;;;58.65;50.10;;;17.60;99.90;;;;;;5070202;27;20062;-74
2021/09/15 03:35:47;;;;;;;59.00;49.38;;;17.60;99.90;;;;;;5048750;28;20784;-75
2021/09/15 03:38:13;;;;;;;56.63;47.72;;;17.60;99.90;;;;;;5074794;27;20043;-74
2021/09/15 03:40:39;;;;;;;55.45;47.63;;;17.50;99.90;;;;;;5085179;27;20043;-76
2021/09/15 03:43:04;;;;;;;87.85;59.65;;;17.60;99.90;;;;;;5062097;28;20044;-74
2021/09/15 03:45:30;;;;;;;72.72;55.78;;;17.60;99.90;;;;;;5067113;28;20042;-74
2021/09/15 03:47:56;;;;;;;70.50;53.80;;;17.50;99.90;;;;;;5053466;28;20445;-74
2021/09/15 03:50:22;;;;;;;64.40;53.47;;;17.50;99.90;;;;;;5096492;27;20043;-75
2021/09/15 03:52:47;;;;;;;100.05;62.55;;;17.50;99.90;;;;;;5066748;28;20130;-75
2021/09/15 03:55:13;;;;;;;78.68;57.33;;;17.50;99.90;;;;;;5068522;28;20051;-75
2021/09/15 03:57:39;;;;;;;76.13;56.75;;;17.50;99.90;;;;;;5083577;28;20051;-75
2021/09/15 04:00:05;;;;;;;91.32;60.17;;;17.50;99.90;;;;;;5069337;27;20075;-75
2021/09/15 04:02:31;;;;;;;81.20;56.72;;;17.50;99.90;;;;;;5077811;28;20040;-75
2021/09/15 04:04:57;;;;;;;65.45;51.92;;;17.40;99.90;;;;;;5056601;28;20035;-75
2021/09/15 04:07:23;;;;;;;67.30;51.72;;;17.40;99.90;;;;;;5062985;28;20035;-75
2021/09/15 04:09:49;;;;;;;110.53;67.28;;;17.40;99.90;;;;;;5092520;28;20042;-75
2021/09/15 04:12:15;;;;;;;79.55;57.80;;;17.40;99.90;;;;;;5066790;28;20055;-75
2021/09/15 04:14:41;;;;;;;82.22;59.67;;;17.40;99.90;;;;;;5060436;28;20487;-75
2021/09/15 04:17:07;;;;;;;116.82;67.85;;;17.40;99.90;;;;;;5085889;28;20106;-76
2021/09/15 04:19:36;;;;;;;100.03;63.53;;;17.40;99.90;;;;;;5048283;28;20038;-75
2021/09/15 04:22:02;;;;;;;95.70;60.90;;;17.40;99.90;;;;;;5090806;28;20051;-75
2021/09/15 04:32:25;;;;;;;69.88;52.83;;;17.30;99.90;;;;;;5070472;28;20075;-76
2021/09/15 04:34:51;;;;;;;91.45;60.15;;;17.40;99.90;;;;;;5067143;28;20102;-77
2021/09/15 04:37:17;;;;;;;118.50;64.25;;;17.30;99.90;;;;;;5061312;28;20048;-76
2021/09/15 04:39:43;;;;;;;74.03;53.15;;;17.30;99.90;;;;;;5035698;28;20051;-75
2021/09/15 04:42:09;;;;;;;82.53;57.40;;;17.30;99.90;;;;;;5057477;28;20044;-75
2021/09/15 04:44:34;;;;;;;80.00;55.50;;;17.30;99.90;;;;;;5056865;28;20036;-76
2021/09/15 04:47:00;;;;;;;151.55;69.38;;;17.30;99.90;;;;;;5078674;28;20046;-75
2021/09/15 04:49:26;;;;;;;106.18;60.85;;;17.30;99.90;;;;;;5061207;28;20043;-75
2021/09/15 04:51:52;;;;;;;70.70;53.50;;;17.20;99.90;;;;;;5067404;28;20079;-75
2021/09/15 04:54:17;;;;;;;79.25;57.55;;;17.20;99.90;;;;;;5069323;28;20074;-75
2021/09/15 04:56:43;;;;;;;77.35;54.15;;;17.20;99.90;;;;;;5082945;28;20043;-75
2021/09/15 04:59:09;;;;;;;66.25;52.33;;;17.20;99.90;;;;;;5030417;28;22235;-75
2021/09/15 05:04:37;;;;;;;77.43;52.80;;;17.10;99.90;;;;;;5062670;28;20048;-76
2021/09/15 05:07:03;;;;;;;82.68;55.60;;;17.10;99.90;;;;;;5102310;28;20047;-75
2021/09/15 05:09:29;;;;;;;83.20;58.20;;;17.10;99.90;;;;;;5075790;28;20040;-76
2021/09/15 05:11:55;;;;;;;83.72;57.10;;;17.00;99.90;;;;;;5080072;28;20050;-76
2021/09/15 05:14:20;;;;;;;84.55;58.00;;;17.10;99.90;;;;;;5067885;28;20127;-76
2021/09/15 05:16:46;;;;;;;80.47;57.58;;;17.10;99.90;;;;;;5083951;28;20119;-76
2021/09/15 05:19:12;;;;;;;88.07;60.72;;;17.10;99.90;;;;;;5054373;28;20074;-76
2021/09/15 05:21:38;;;;;;;98.95;60.65;;;17.10;99.90;;;;;;5050693;28;20410;-75
2021/09/15 05:24:06;;;;;;;85.68;57.63;;;17.10;99.90;;;;;;5053050;28;20054;-76
2021/09/15 05:26:32;;;;;;;76.57;55.50;;;17.10;99.90;;;;;;5086902;28;20039;-76
2021/09/15 05:28:58;;;;;;;102.35;61.22;;;17.10;99.90;;;;;;5059970;28;20051;-76
2021/09/15 05:31:23;;;;;;;79.20;56.80;;;17.10;99.90;;;;;;5072106;28;20531;-76
2021/09/15 05:33:49;;;;;;;95.65;61.90;;;17.10;99.90;;;;;;5057579;28;20109;-76
2021/09/15 05:36:15;;;;;;;67.50;52.28;;;17.10;99.90;;;;;;5045807;28;20043;-76
2021/09/15 05:38:44;;;;;;;66.85;48.38;;;17.10;99.90;;;;;;5042028;28;20048;-76
2021/09/15 05:41:10;;;;;;;114.97;64.53;;;17.10;99.90;;;;;;5072868;28;20131;-76
2021/09/15 05:43:36;;;;;;;67.68;51.67;;;17.10;99.90;;;;;;5072082;28;20122;-76
2021/09/15 05:46:01;;;;;;;78.05;55.72;;;17.10;99.90;;;;;;5059073;27;20040;-76
2021/09/15 05:48:27;;;;;;;94.10;57.85;;;17.10;99.90;;;;;;5085772;28;20039;-75
2021/09/15 05:50:53;;;;;;;68.93;51.67;;;17.20;99.90;;;;;;5054750;28;20671;-76
2021/09/15 05:53:22;;;;;;;118.05;66.68;;;17.20;99.90;;;;;;5086339;28;20050;-78
2021/09/15 05:55:48;;;;;;;65.85;51.75;;;17.20;99.90;;;;;;5066071;28;20051;-76
2021/09/15 05:58:13;;;;;;;88.10;61.80;;;17.20;99.90;;;;;;5071121;27;20055;-76
2021/09/15 06:00:39;;;;;;;77.20;56.85;;;17.20;99.90;;;;;;5071175;27;20050;-75
2021/09/15 06:03:05;;;;;;;110.03;66.53;;;17.20;99.90;;;;;;5067931;28;20043;-75
2021/09/15 06:05:31;;;;;;;89.63;63.35;;;17.30;99.90;;;;;;5064672;28;20068;-76
2021/09/15 06:07:56;;;;;;;115.40;66.35;;;17.30;99.90;;;;;;5085971;28;20057;-75
2021/09/15 06:10:22;;;;;;;83.80;60.83;;;17.40;99.90;;;;;;5081213;28;20047;-76
2021/09/15 06:12:48;;;;;;;74.32;56.72;;;17.40;99.90;;;;;;5082250;28;20035;-75
2021/09/15 06:15:14;;;;;;;112.35;65.47;;;17.40;99.90;;;;;;5079675;28;21532;-76
2021/09/15 06:17:40;;;;;;;91.50;61.85;;;17.40;99.90;;;;;;5040507;28;20462;-75
2021/09/15 06:20:07;;;;;;;97.80;63.60;;;17.40;99.90;;;;;;5071746;27;20130;-75
2021/09/15 06:22:32;;;;;;;79.68;59.75;;;17.50;99.90;;;;;;5072756;28;20040;-75
2021/09/15 06:24:58;;;;;;;87.57;59.60;;;17.40;99.90;;;;;;5057392;27;20043;-75
2021/09/15 06:27:25;;;;;;;78.53;56.85;;;17.40;99.90;;;;;;5053696;28;20043;-75
2021/09/15 06:29:54;;;;;;;77.70;56.45;;;17.50;99.90;;;;;;5083202;27;20036;-76
2021/09/15 06:32:21;;;;;;;90.43;62.20;;;17.50;99.90;;;;;;5075041;28;20032;-76
2021/09/15 06:34:47;;;;;;;71.53;52.28;;;17.50;99.90;;;;;;5073957;28;20090;-76
2021/09/15 06:37:17;;;;;;;88.85;60.30;;;17.50;99.90;;;;;;5068898;28;20084;-75
2021/09/15 06:39:46;;;;;;;87.82;61.38;;;17.60;99.90;;;;;;5097185;27;20050;-76
2021/09/15 06:42:12;;;;;;;89.07;62.25;;;17.60;99.90;;;;;;5068409;28;20066;-76
2021/09/15 06:44:38;;;;;;;99.82;65.70;;;17.60;99.90;;;;;;5056074;27;20035;-76
2021/09/15 06:47:04;;;;;;;75.70;55.40;;;17.60;99.90;;;;;;5062762;28;20106;-76
2021/09/15 06:49:30;;;;;;;86.60;62.72;;;17.60;99.90;;;;;;5053953;28;20035;-76
2021/09/15 06:51:56;;;;;;;86.25;61.33;;;17.70;99.90;;;;;;5066442;27;20059;-76
2021/09/15 06:54:21;;;;;;;85.57;60.42;;;17.70;99.90;;;;;;5064178;28;20109;-76
2021/09/15 06:56:47;;;;;;;109.88;69.28;;;17.80;99.90;;;;;;5082391;28;20493;-76
2021/09/15 06:59:13;;;;;;;109.90;66.82;;;17.80;99.90;;;;;;5072374;27;20050;-76
2021/09/15 07:01:39;;;;;;;117.80;71.38;;;17.80;99.90;;;;;;5046403;28;20359;-76
2021/09/15 07:04:04;;;;;;;104.60;64.10;;;17.90;99.90;;;;;;5094513;27;20055;-76
2021/09/15 07:06:30;;;;;;;99.05;62.90;;;17.90;99.90;;;;;;5071876;28;20545;-76
2021/09/15 07:08:59;;;;;;;112.47;67.60;;;17.90;99.90;;;;;;5045186;28;20043;-76
2021/09/15 07:11:25;;;;;;;107.80;66.85;;;18.00;99.90;;;;;;5082449;28;20039;-76
2021/09/15 07:13:50;;;;;;;109.32;66.28;;;18.00;99.90;;;;;;5076833;27;20571;-76
2021/09/15 07:16:18;;;;;;;139.25;74.43;;;18.00;99.90;;;;;;5071820;27;20035;-75
2021/09/15 07:18:44;;;;;;;127.70;73.57;;;18.10;99.90;;;;;;5086624;27;20437;-75
2021/09/15 07:21:10;;;;;;;150.02;77.13;;;18.10;99.90;;;;;;5062223;28;20050;-75
2021/09/15 07:23:36;;;;;;;129.57;73.07;;;18.10;99.90;;;;;;5066413;27;20062;-75
2021/09/15 07:26:02;;;;;;;111.47;69.00;;;18.10;99.90;;;;;;5061899;28;20493;-76
2021/09/15 07:28:28;;;;;;;113.05;66.03;;;18.20;99.90;;;;;;5064420;27;20383;-76
2021/09/15 07:30:53;;;;;;;114.78;68.47;;;18.20;99.90;;;;;;5067777;28;20369;-76
2021/09/15 07:33:19;;;;;;;115.50;70.18;;;18.20;99.90;;;;;;5077782;28;20058;-76
2021/09/15 07:35:45;;;;;;;145.52;76.47;;;18.20;99.90;;;;;;5065004;28;20049;-75
2021/09/15 07:38:11;;;;;;;129.45;74.63;;;18.30;99.90;;;;;;5078521;28;20066;-76
2021/09/15 07:40:43;;;;;;;117.47;70.13;;;18.30;99.90;;;;;;5067143;28;20397;-76
2021/09/15 07:43:17;;;;;;;128.98;72.53;;;18.40;99.90;;;;;;5074923;28;20072;-76
2021/09/15 07:45:43;;;;;;;116.10;69.97;;;18.40;99.90;;;;;;5082493;28;20080;-76
2021/09/15 07:48:10;;;;;;;117.30;70.68;;;18.40;99.90;;;;;;5032281;28;20071;-76
2021/09/15 07:50:35;;;;;;;127.85;72.25;;;18.50;99.90;;;;;;5080485;28;20028;-76
2021/09/15 07:53:01;;;;;;;122.07;71.00;;;18.50;99.90;;;;;;5054766;28;20074;-76
2021/09/15 07:55:27;;;;;;;115.60;69.40;;;18.50;99.90;;;;;;5062396;28;20036;-76
2021/09/15 07:57:53;;;;;;;119.32;71.15;;;18.50;99.90;;;;;;5078425;28;20803;-76
2021/09/15 08:00:20;;;;;;;121.93;72.22;;;18.50;99.90;;;;;;5038152;28;20033;-76
2021/09/15 08:02:46;;;;;;;115.55;71.13;;;18.60;99.90;;;;;;5066369;28;20068;-75
2021/09/15 08:05:12;;;;;;;119.55;71.10;;;18.70;99.90;;;;;;5079577;28;20082;-75
2021/09/15 08:07:38;;;;;;;110.05;68.15;;;18.70;99.90;;;;;;5042761;28;20044;-75
2021/09/15 08:10:07;;;;;;;112.78;69.32;;;18.70;99.90;;;;;;5068040;28;20055;-76
2021/09/15 08:12:32;;;;;;;108.50;67.63;;;18.70;99.90;;;;;;5062726;28;20061;-75
2021/09/15 08:14:58;;;;;;;102.15;65.03;;;18.80;99.90;;;;;;5073554;28;20123;-75
2021/09/15 08:17:27;;;;;;;93.40;59.17;;;18.90;99.90;;;;;;5078354;28;20105;-76
2021/09/15 08:19:52;;;;;;;96.63;64.93;;;18.90;99.90;;;;;;5080629;28;20040;-75
2021/09/15 08:22:18;;;;;;;97.38;64.45;;;19.00;99.90;;;;;;5026052;28;20048;-75
2021/09/15 08:24:44;;;;;;;88.03;58.63;;;19.00;99.90;;;;;;5049910;28;20036;-75
2021/09/15 08:27:10;;;;;;;85.90;61.03;;;19.10;99.90;;;;;;5038986;28;20047;-76
2021/09/15 08:29:36;;;;;;;86.90;60.85;;;19.10;99.90;;;;;;5063563;28;20032;-75
2021/09/15 08:32:02;;;;;;;87.03;60.65;;;19.20;99.90;;;;;;5076432;28;20132;-75
2021/09/15 08:34:28;;;;;;;85.13;59.55;;;19.20;99.90;;;;;;5044080;28;20040;-75
2021/09/15 08:36:54;;;;;;;89.72;61.28;;;19.30;99.90;;;;;;5047757;28;20457;-75
2021/09/15 08:39:21;;;;;;;87.28;59.58;;;19.30;99.90;;;;;;5058600;28;20078;-75
2021/09/15 08:41:49;;;;;;;78.78;57.80;;;19.40;99.90;;;;;;5077828;28;20052;-76
2021/09/15 08:44:15;;;;;;;80.20;56.67;;;19.40;99.90;;;;;;5081129;28;20044;-75
2021/09/15 08:46:43;;;;;;;81.63;56.70;;;19.40;99.90;;;;;;5059374;28;20134;-75
2021/09/15 08:49:13;;;;;;;79.45;59.28;;;19.50;99.90;;;;;;5057972;28;20044;-75
2021/09/15 08:51:39;;;;;;;78.35;57.35;;;19.50;99.90;;;;;;5051257;28;20102;-75
2021/09/15 08:54:05;;;;;;;72.65;54.60;;;19.60;99.90;;;;;;5072256;28;20674;-76
2021/09/15 08:56:37;;;;;;;72.40;56.97;;;19.60;99.90;;;;;;5059204;28;20040;-75
2021/09/15 08:59:06;;;;;;;71.40;53.63;;;19.60;99.90;;;;;;5060688;28;20452;-75
2021/09/15 09:01:32;;;;;;;72.45;56.85;;;19.60;99.90;;;;;;5077809;28;20049;-76
2021/09/15 09:03:58;;;;;;;68.85;55.50;;;19.70;99.90;;;;;;5063192;28;20410;-76
2021/09/15 09:06:26;;;;;;;63.47;51.63;;;19.70;99.90;;;;;;5044886;28;20063;-75
2021/09/15 09:08:54;;;;;;;61.10;49.38;;;19.80;99.90;;;;;;5067021;28;20044;-75
2021/09/15 09:11:23;;;;;;;52.55;46.25;;;19.80;99.90;;;;;;5083982;28;20048;-75
2021/09/15 09:13:58;;;;;;;58.10;47.00;;;19.80;99.90;;;;;;5069124;28;20123;-76
2021/09/15 09:16:42;;;;;;;59.90;49.03;;;19.80;99.90;;;;;;5062027;28;20080;-75
2021/09/15 09:19:13;;;;;;;58.90;47.78;;;19.90;99.90;;;;;;5063650;28;20279;-75
2021/09/15 09:21:52;;;;;;;60.88;48.88;;;19.90;99.90;;;;;;5068412;28;20040;-76
2021/09/15 09:24:23;;;;;;;59.40;46.53;;;19.90;99.90;;;;;;5064209;28;20058;-76
2021/09/15 09:26:58;;;;;;;61.45;47.78;;;19.80;99.90;;;;;;5065361;28;20293;-75
2021/09/15 09:29:29;;;;;;;60.83;49.60;;;19.80;99.90;;;;;;5086198;28;20384;-76
2021/09/15 09:32:15;;;;;;;62.42;49.50;;;19.90;99.90;;;;;;5061569;28;20590;-76
2021/09/15 09:34:49;;;;;;;62.17;49.35;;;20.00;99.90;;;;;;5084730;28;20052;-75
2021/09/15 09:37:18;;;;;;;61.03;49.42;;;20.00;99.90;;;;;;5082415;28;20074;-75
2021/09/15 09:39:50;;;;;;;64.10;51.63;;;20.00;99.90;;;;;;5079137;28;20040;-76
2021/09/15 09:42:22;;;;;;;63.75;50.88;;;20.00;99.90;;;;;;5080529;28;20052;-75
2021/09/15 09:45:03;;;;;;;62.63;49.72;;;20.00;99.90;;;;;;5062867;28;20064;-75
2021/09/15 09:47:29;;;;;;;58.10;49.63;;;19.90;99.90;;;;;;5091668;27;20056;-76
2021/09/15 09:50:15;;;;;;;59.00;49.88;;;20.00;99.90;;;;;;5056458;28;20097;-75
2021/09/15 09:53:02;;;;;;;55.10;46.75;;;20.00;99.90;;;;;;5068228;28;20080;-76
2021/09/15 09:55:36;;;;;;;57.63;47.97;;;20.00;99.90;;;;;;5061386;28;20042;-75
2021/09/15 09:58:07;;;;;;;50.03;44.53;;;20.00;99.90;;;;;;5081683;28;20055;-75
2021/09/15 10:00:37;;;;;;;48.97;42.13;;;20.00;99.90;;;;;;5083126;28;22107;-75
2021/09/15 10:03:10;;;;;;;47.70;42.38;;;20.00;99.90;;;;;;5052909;28;20200;-75
2021/09/15 10:05:36;;;;;;;46.10;39.72;;;20.00;99.90;;;;;;5073095;28;20040;-76
2021/09/15 10:08:05;;;;;;;45.33;39.67;;;19.90;99.90;;;;;;5061660;28;20036;-76
2021/09/15 10:10:31;;;;;;;46.97;41.95;;;20.00;99.90;;;;;;5070872;28;20051;-76
2021/09/15 10:12:58;;;;;;;45.30;39.75;;;20.00;99.90;;;;;;5063153;28;20044;-76
2021/09/15 10:15:24;;;;;;;46.75;41.83;;;20.00;99.90;;;;;;5051100;28;20192;-76
2021/09/15 10:17:55;;;;;;;48.03;42.53;;;20.00;99.90;;;;;;5068134;28;20071;-76
2021/09/15 10:20:27;;;;;;;48.03;42.80;;;20.00;99.90;;;;;;5050511;28;20518;-76
2021/09/15 10:22:57;;;;;;;48.28;41.75;;;20.10;99.90;;;;;;5050841;28;20047;-76
2021/09/15 10:25:39;;;;;;;43.72;38.78;;;20.10;99.90;;;;;;5068793;28;20077;-76
2021/09/15 10:28:10;;;;;;;46.08;39.53;;;20.20;99.90;;;;;;5073894;28;20100;-76
2021/09/15 10:30:43;;;;;;;44.83;40.00;;;20.20;99.90;;;;;;5040936;28;20127;-75
2021/09/15 10:33:39;;;;;;;45.00;40.20;;;20.20;99.90;;;;;;5056122;28;20441;-75
2021/09/15 10:36:17;;;;;;;43.88;38.97;;;20.20;99.90;;;;;;5035836;28;20056;-76
2021/09/15 10:38:53;;;;;;;49.47;41.85;;;20.30;99.90;;;;;;5045672;28;20044;-76
2021/09/15 10:41:39;;;;;;;45.25;40.33;;;20.30;99.90;;;;;;5052677;28;20037;-76
2021/09/15 10:44:16;;;;;;;47.40;40.63;;;20.30;99.90;;;;;;5044940;28;20052;-75
2021/09/15 10:46:44;;;;;;;42.78;38.17;;;20.30;99.90;;;;;;5048750;28;20084;-76
2021/09/15 10:49:19;;;;;;;42.90;37.30;;;20.30;99.90;;;;;;5053417;28;20059;-76
2021/09/15 10:52:10;;;;;;;47.40;39.97;;;20.30;99.90;;;;;;5044756;28;20084;-75
2021/09/15 10:54:48;;;;;;;44.75;39.80;;;20.30;99.90;;;;;;5047309;28;20064;-75
2021/09/15 10:57:28;;;;;;;44.33;39.28;;;20.30;99.90;;;;;;5050940;28;20478;-75
2021/09/15 10:59:55;;;;;;;42.75;38.08;;;20.30;99.90;;;;;;5038453;28;20056;-75
2021/09/15 11:02:37;;;;;;;48.13;39.05;;;20.30;99.90;;;;;;5037177;28;20486;-75
2021/09/15 11:05:25;;;;;;;46.03;39.03;;;20.30;99.90;;;;;;5045383;28;20504;-75
2021/09/15 11:07:51;;;;;;;46.50;40.72;;;20.30;99.90;;;;;;5047032;28;20458;-75
2021/09/15 11:10:34;;;;;;;46.15;40.67;;;20.30;99.90;;;;;;5039845;28;20045;-75
2021/09/15 11:13:32;;;;;;;44.05;39.25;;;20.30;99.90;;;;;;5054298;28;20105;-75
2021/09/15 11:16:21;;;;;;;49.17;41.72;;;20.40;99.90;;;;;;5043122;28;20044;-75
2021/09/15 11:18:57;;;;;;;49.40;43.33;;;20.50;99.90;;;;;;5035431;28;20360;-75
2021/09/15 11:21:24;;;;;;;51.95;42.22;;;20.50;99.90;;;;;;5038971;28;20114;-75
2021/09/15 11:23:55;;;;;;;49.60;40.67;;;20.50;99.90;;;;;;5020006;28;20084;-75
2021/09/15 11:26:43;;;;;;;51.95;40.70;;;20.50;99.90;;;;;;5044079;28;20048;-75
2021/09/15 11:29:10;;;;;;;57.08;41.90;;;20.60;99.90;;;;;;5049990;28;20135;-76
2021/09/15 11:31:37;;;;;;;57.30;42.30;;;20.60;99.90;;;;;;5048799;28;20507;-75
2021/09/15 11:34:08;;;;;;;57.42;41.72;;;20.60;99.90;;;;;;5043977;28;20044;-75
2021/09/15 11:36:34;;;;;;;55.75;43.17;;;20.90;99.90;;;;;;5057326;28;20058;-75
2021/09/15 11:39:00;;;;;;;48.10;38.08;;;21.00;99.90;;;;;;5060917;28;20091;-75
2021/09/15 11:41:34;;;;;;;52.72;40.80;;;21.10;99.90;;;;;;5068152;28;20039;-75
2021/09/15 11:44:00;;;;;;;52.03;41.25;;;21.10;99.90;;;;;;5049065;28;20055;-76
2021/09/15 11:46:37;;;;;;;51.50;40.13;;;21.00;99.90;;;;;;5035296;28;20381;-75
2021/09/15 11:49:04;;;;;;;53.33;40.17;;;21.00;99.90;;;;;;5076707;28;20047;-75
2021/09/15 11:51:37;;;;;;;46.88;37.88;;;21.10;99.90;;;;;;5061729;28;20040;-75
2021/09/15 11:54:08;;;;;;;42.97;34.70;;;21.20;99.90;;;;;;5066700;28;20032;-75
2021/09/15 11:56:43;;;;;;;45.22;36.03;;;21.30;99.90;;;;;;5072262;28;20277;-75
2021/09/15 11:59:11;;;;;;;43.95;35.50;;;21.30;99.90;;;;;;5057296;27;20166;-74
2021/09/15 12:01:41;;;;;;;40.80;33.40;;;21.50;99.90;;;;;;5081951;28;20163;-75
2021/09/15 12:04:09;;;;;;;39.97;32.53;;;21.50;99.90;;;;;;5073639;28;20044;-75
2021/09/15 12:06:38;;;;;;;36.28;29.33;;;21.50;99.90;;;;;;5062597;28;20077;-75
2021/09/15 12:09:05;;;;;;;31.98;27.65;;;21.70;99.90;;;;;;5072360;28;20062;-75
2021/09/15 12:11:36;;;;;;;34.95;28.10;;;21.70;99.90;;;;;;5057390;28;21165;-75
2021/09/15 12:14:06;;;;;;;31.27;25.38;;;21.80;99.90;;;;;;5063859;28;20156;-75
2021/09/15 12:16:40;;;;;;;30.60;26.08;;;21.80;99.90;;;;;;5077691;28;20849;-75
2021/09/15 12:19:22;;;;;;;30.40;26.42;;;21.80;99.90;;;;;;5077149;28;20096;-75
2021/09/15 12:21:50;;;;;;;30.17;24.05;;;21.80;99.90;;;;;;5047352;28;20047;-75
2021/09/15 12:24:18;;;;;;;30.17;25.83;;;21.80;99.90;;;;;;5082023;28;20502;-75
2021/09/15 12:26:45;;;;;;;27.63;23.35;;;21.90;99.90;;;;;;5084552;27;20076;-76
2021/09/15 12:29:12;;;;;;;32.00;25.85;;;22.00;99.90;;;;;;5063731;28;20052;-75
2021/09/15 12:31:58;;;;;;;30.33;25.08;;;22.00;99.90;;;;;;5088127;28;20043;-75
2021/09/15 12:34:30;;;;;;;26.90;22.27;;;22.00;99.90;;;;;;5080426;28;20229;-75
2021/09/15 12:37:09;;;;;;;30.42;22.80;;;22.10;99.90;;;;;;5080362;28;20509;-75
2021/09/15 12:39:49;;;;;;;26.30;22.03;;;22.30;99.90;;;;;;5064626;28;20081;-75
2021/09/15 12:42:16;;;;;;;;;;;22.50;99.90;;;;;;5092861;28;20044;-75